Latest Coastal Weather Observations for Wilsons Promontory

IDT60701

Issued at 7:32 pm EST Wednesday 6 May 2026 (issued every 10 minutes, with the page automatically refreshed every 10 minutes)

About coastal observations | Map of coastal stations | Coastal observations for TAS | Marine services | Other Formats
Station Details ID: 085096 Name: WILSONS PROMONTORY LIGHTHOUSE Lat: -39.13 Lon: 146.42 Height: 95.0 m
Data from the previous 72 hours. | See also: Recent months at Wilsons Promontory
Date/Time
EST
Wind Sea
Height
m
Swell Vis
km
Cloud Weather Temp
°C
Press
MSL
hPa
Rain since
9am
mm
Dir  Spd
kts
Gust
kts
Height
m
Period
s
Dir
06/07:30pm WSW 32 44 - - - - - - - 12.1 1010.6 9.2
06/07:01pm WNW 21 44 - - - - - - - 12.2 1010.6 9.0
06/07:00pm NW 19 43 - - - - - - - 12.2 1010.9 9.0
06/06:58pm NNW 15 43 - - - - - - - 12.5 1011.1 8.8
06/06:30pm W 12 26 - - - - - - - 12.5 1011.5 6.6
06/06:24pm W 15 26 - - - - - - - 12.4 1011.5 6.6
06/06:00pm W 15 23 - - - - - - Rain 12.8 1011.9 4.4
06/05:38pm W 15 27 - - - - - - - 13.6 1012.0 1.6
06/05:36pm W 15 27 - - - - - - - 13.7 - 1.4
06/05:34pm WNW 11 26 - - - - - - - 13.8 1011.8 1.2
06/05:30pm WNW 10 25 - - - - - - - 14.4 1011.9 0.4
06/05:00pm NNW 16 30 - - - - - - - 15.0 1011.0 0.0
06/04:39pm NNW 15 28 - - - - - - - 15.2 1011.1 0.0
06/04:30pm NNW 12 23 - - - - - - - 15.2 1011.3 0.0
06/04:00pm NNW 9 23 - - - - - - - 15.3 1011.9 0.0
06/03:30pm NE 5 11 - - - - - - - 15.3 1012.5 0.0
06/03:00pm NNW 6 13 - - - - - - - 15.4 1013.0 0.0
06/02:30pm WNW 10 18 - - - - - - - 15.1 1013.4 0.0
06/02:00pm WNW 16 35 - - - - - - - 15.0 1013.5 0.0
06/01:55pm WNW 15 35 - - - - - - - 15.1 1013.2 0.0
06/01:51pm W 15 26 - - - - - - - 15.1 - 0.0
06/01:50pm NW 13 25 - - - - - - - 15.2 1013.6 0.0
06/01:30pm WNW 13 31 - - - - - - - 15.7 1014.0 0.0
06/01:00pm WNW 29 47 - - - - - - - 15.2 1013.8 0.0
06/12:30pm WNW 29 45 - - - - - - - 15.1 1014.1 0.0
06/12:00pm WNW 23 40 - - - - - - - 15.0 1014.7 0.0
06/11:30am W 23 42 - - - - - - - 14.9 1015.3 0.0
06/11:00am W 21 35 - - - - - - - 15.0 1016.1 0.0
06/10:30am W 17 28 - - - - - - - 14.9 1016.7 0.0
06/10:01am W 18 28 - - - - - - - 14.6 1017.1 0.0
06/10:00am W 19 28 - - - - - - - 14.5 1017.0 0.0
06/09:30am WNW 20 32 - - - - - - - 14.4 1017.3 0.0
06/09:00am W 16 29 - - - - - - - 14.0 1017.8 0.0
06/08:35am W 16 26 - - - - - - - 14.1 1017.9 0.0
06/08:30am W 18 27 - - - - - - - 14.1 1017.9 0.0
06/08:07am WNW 19 29 - - - - - - - 14.0 1017.8 0.0
06/08:00am WNW 21 29 - - - - - - - 14.0 1017.8 0.0
06/07:30am WNW 18 30 - - - - - - - 13.9 1017.8 0.0
06/07:00am WNW 18 28 - - - - - - - 13.9 1018.0 0.0
06/06:31am WNW 15 25 - - - - - - - 13.9 1018.2 0.0
06/06:30am WNW 15 25 - - - - - - - 13.9 1018.1 0.0
06/06:00am W 18 28 - - - - - - - 14.2 1018.3 0.0
06/05:32am W 15 25 - - - - - - - 14.2 - 0.0
06/05:31am W 15 25 - - - - - - - 14.2 1018.4 0.0
06/05:30am W 16 25 - - - - - - - 14.2 1018.4 0.0
06/05:09am W 17 27 - - - - - - - 14.2 1018.3 0.0
06/05:00am W 21 27 - - - - - - - 14.2 1018.2 0.0
06/04:30am W 18 28 - - - - - - - 14.1 1018.3 0.0
06/04:11am W 21 31 - - - - - - - 14.2 1018.2 0.0
06/04:00am W 19 27 - - - - - - - 14.3 1018.4 0.0
06/03:48am W 17 27 - - - - - - - 14.2 1018.4 0.0
06/03:30am W 19 27 - - - - - - - 14.3 1018.5 0.0
06/03:00am W 19 29 - - - - - - - 14.3 1018.8 0.0
06/02:30am W 17 27 - - - - - - - 14.2 1019.3 0.0
06/02:11am W 15 28 - - - - - - - 14.3 1019.4 0.0
06/02:00am W 15 20 - - - - - - - 14.3 1019.6 0.0
06/01:30am W 15 22 - - - - - - - 14.3 1019.8 0.0
06/01:00am W 16 27 - - - - - - - 14.0 1019.8 0.0
06/12:54am W 17 27 - - - - - - - 14.1 1019.7 0.0
06/12:30am W 17 23 - - - - - - - 14.1 1019.7 0.0
06/12:03am W 18 28 - - - - - - - 14.1 1019.6 0.0
06/12:00am W 17 26 - - - - - - - 14.1 1019.6 0.0
 
Date/Time
EST
Wind Sea
Height
m
Swell Vis
km
Cloud Weather Temp
°C
Press
MSL
hPa
Rain since
9am
mm
Dir  Spd
kts
Gust
kts
Height
m
Period
s
Dir
05/11:34pm W 22 32 - - - - - - - 13.9 1019.5 0.0
05/11:30pm W 20 27 - - - - - - - 13.8 1019.6 0.0
05/11:00pm W 21 29 - - - - - - - 13.9 1019.8 0.0
05/10:45pm W 19 29 - - - - - - - 13.8 1019.9 0.0
05/10:30pm W 23 31 - - - - - - - 13.7 1020.0 0.0
05/10:00pm W 21 29 - - - - - - - 13.9 1020.0 0.0
05/09:43pm W 17 27 - - - - - - - 13.7 1020.2 0.0
05/09:30pm W 17 25 - - - - - - - 14.0 1020.1 0.0
05/09:00pm W 19 30 - - - - - - - 14.0 1020.2 0.0
05/08:39pm W 19 29 - - - - - - - 14.1 1020.1 0.0
05/08:30pm W 17 26 - - - - - - - 14.1 1020.2 0.0
05/08:11pm W 18 28 - - - - - - - 13.8 1020.4 0.0
05/08:00pm W 15 21 - - - - - - - 14.2 1020.5 0.0
05/07:30pm W 17 27 - - - - - - - 14.1 1020.4 0.0
05/07:10pm W 18 28 - - - - - - - 14.4 1020.2 0.0
05/07:00pm W 18 25 - - - - - - - 14.3 1020.2 0.0
05/06:35pm W 18 28 - - - - - - - 14.3 1019.7 0.0
05/06:30pm W 19 26 - - - - - - - 14.3 1019.8 0.0
05/06:28pm W 19 29 - - - - - - - 14.3 1019.8 0.0
05/06:00pm W 23 30 - - - - - - - 14.3 1019.2 0.0
05/05:36pm W 19 31 - - - - - - - 14.2 1018.8 0.0
05/05:30pm W 18 27 - - - - - - - 14.2 1019.1 0.0
05/05:02pm W 22 32 - - - - - - - 14.0 1018.8 0.0
05/05:00pm W 24 32 - - - - - - - 14.0 1018.7 0.0
05/04:51pm W 20 31 - - - - - - - 14.0 1018.4 0.0
05/04:30pm W 23 30 - - - - - - - 14.3 1018.3 0.0
05/04:00pm W 26 33 - - - - - - - 14.2 1017.9 0.0
05/03:30pm W 18 29 - - - - - - - 14.3 1018.0 0.0
05/03:25pm W 17 27 - - - - - - - 14.4 1018.0 0.0
05/03:00pm W 21 29 - - - - - - - 14.0 1017.5 0.0
05/02:50pm W 22 32 - - - - - - - 13.8 1017.5 0.0
05/02:30pm W 25 33 - - - - - - - 14.2 1016.9 0.0
05/02:09pm W 24 34 - - - - - - - 13.7 1016.8 0.0
05/02:00pm W 25 34 - - - - - - - 14.0 1016.1 0.0
05/01:30pm W 22 32 - - - - - - - 13.4 1016.6 0.0
05/01:18pm W 19 29 - - - - - - - 14.0 - 0.0
05/01:17pm W 19 29 - - - - - - - 13.9 1016.7 0.0
05/01:00pm W 23 31 - - - - - - - 13.6 1016.4 0.0
05/12:30pm W 22 30 - - - - - - - 14.4 1016.2 0.0
05/12:00pm W 25 31 - - - - - - - 14.8 1016.4 0.0
05/11:30am W 23 31 - - - - - - - 14.8 1016.3 0.0
05/11:09am W 24 34 - - - - - - - 14.8 1016.2 0.0
05/11:00am W 25 31 - - - - - - - 15.1 1016.1 0.0
05/10:30am W 26 32 - - - - - - - 14.8 1015.8 0.0
05/10:00am W 23 31 - - - - - - - 14.6 1015.3 0.0
05/09:39am W 24 35 - - - - - - - 14.7 1015.1 0.0
05/09:30am W 22 31 - - - - - - - 14.6 1015.2 0.0
05/09:14am W 24 34 - - - - - - - 14.7 1015.1 0.0
05/09:00am W 21 29 - - - - - - - 14.0 1014.9 14.0
05/08:36am W 26 36 - - - - - - - 14.5 1014.3 14.0
05/08:30am W 25 33 - - - - - - - 14.5 1014.2 14.0
05/08:03am W 25 35 - - - - - - - 13.9 1013.8 14.0
05/08:00am W 26 34 - - - - - - - 14.1 1013.8 14.0
05/07:34am W 27 38 - - - - - - - 13.6 1013.1 14.0
05/07:30am W 26 35 - - - - - - - 13.4 1013.1 14.0
05/07:19am W 31 43 - - - - - - - 13.0 1012.7 14.0
05/07:16am W 31 43 - - - - - - - 12.8 1012.1 14.0
05/07:04am W 26 36 - - - - - - - 13.6 1012.3 11.8
05/07:00am W 27 36 - - - - - - - 13.2 1012.2 11.6
05/06:45am W 27 39 - - - - - - - 13.4 1012.1 10.8
05/06:42am W 29 39 - - - - - - - 13.4 1012.2 10.6
05/06:36am W 28 39 - - - - - - - 13.2 1011.4 10.6
05/06:30am W 23 35 - - - - - - - 13.7 1011.7 9.6
05/06:00am W 23 37 - - - - - - - 14.1 1010.9 9.4
05/05:30am W 28 40 - - - - - - - 14.1 1010.6 9.4
05/05:00am W 27 43 - - - - - - - 14.4 1009.6 9.4
05/04:30am W 29 42 - - - - - - - 14.5 1009.1 9.4
05/04:00am W 28 47 - - - - - - - 14.5 1008.6 9.4
05/03:44am W 34 48 - - - - - - - 14.7 - 9.4
05/03:43am W 34 48 - - - - - - - 14.7 - 9.4
05/03:38am W 28 48 - - - - - - - 14.7 1008.1 9.4
05/03:36am W 30 53 - - - - - - - 14.7 1008.0 9.4
05/03:30am W 33 53 - - - - - - - 14.7 1007.4 9.4
05/03:00am W 29 48 - - - - - - Rain 14.0 1007.4 9.4
05/02:30am WNW 22 40 - - - - - - - 13.6 1008.0 7.2
05/02:00am NW 13 40 - - - - - - - 13.4 1008.3 3.6
05/01:58am NW 12 40 - - - - - - - 13.4 1008.0 3.4
05/01:30am NW 9 22 - - - - - - - 13.4 1008.6 0.8
05/01:00am NW 7 17 - - - - - - - 14.0 1008.8 0.0
05/12:48am NNW 15 35 - - - - - - - 14.1 - 0.0
05/12:47am NNW 15 35 - - - - - - - 14.1 1008.5 0.0
05/12:30am NNW 11 31 - - - - - - - 14.5 1008.8 0.0
05/12:22am NNW 11 31 - - - - - - - 14.5 1008.4 0.0
05/12:18am NNW 11 22 - - - - - - - 14.5 1008.7 0.0
05/12:05am NNW 15 34 - - - - - - - 14.6 - 0.0
05/12:01am NNW 11 34 - - - - - - - 14.6 1008.4 0.0
05/12:00am NNW 10 34 - - - - - - - 14.6 1008.5 0.0
 
Date/Time
EST
Wind Sea
Height
m
Swell Vis
km
Cloud Weather Temp
°C
Press
MSL
hPa
Rain since
9am
mm
Dir  Spd
kts
Gust
kts
Height
m
Period
s
Dir
04/11:30pm N 14 34 - - - - - - - 14.7 1008.8 0.0
04/11:00pm NNW 12 31 - - - - - - - 15.0 1009.2 0.0
04/10:58pm NNW 13 31 - - - - - - - 15.1 1009.0 0.0
04/10:30pm NNW 13 27 - - - - - - - 15.3 1009.5 0.0
04/10:01pm NNW 15 31 - - - - - - - 15.5 1009.4 0.0
04/10:00pm NNW 14 31 - - - - - - - 15.5 1009.6 0.0
04/09:33pm NNW 15 32 - - - - - - - 15.9 1009.7 0.0
04/09:30pm NNW 14 32 - - - - - - - 15.9 1009.8 0.0
04/09:00pm N 13 24 - - - - - - - 16.0 1009.6 0.0
04/08:30pm N 11 25 - - - - - - - 16.3 1009.5 0.0
04/08:00pm N 12 19 - - - - - - - 16.6 1009.6 0.0
04/07:30pm N 10 20 - - - - - - - 16.6 1009.4 0.0
04/07:00pm N 11 20 - - - - - - - 16.8 1009.3 0.0
04/06:30pm N 9 18 - - - - - - - 17.0 1009.1 0.0
04/06:00pm N 9 14 - - - - - - - 16.9 1009.0 0.0
04/05:30pm N 9 15 - - - - - - - 17.0 1008.8 0.0
04/05:00pm N 9 17 - - - - - - - 17.2 1008.7 0.0
04/04:30pm NNW 12 20 - - - - - - - 17.4 1008.7 0.0
04/04:00pm NNW 11 25 - - - - - - - 17.7 1008.6 0.0
04/03:30pm NNW 9 16 - - - - - - - 18.1 1008.7 0.0
04/03:00pm N 8 14 - - - - - - - 19.2 1008.6 0.0
04/02:30pm N 9 15 - - - - - - - 18.2 1008.6 0.0
04/02:00pm N 8 17 - - - - - - - 18.8 1008.7 0.0
04/01:30pm N 10 17 - - - - - - - 18.5 1008.9 0.0
04/01:00pm N 10 21 - - - - - - - 18.3 1009.1 0.0
04/12:30pm NNE 11 17 - - - - - - - 18.3 1009.5 0.0
04/12:00pm NNE 12 19 - - - - - - - 17.9 1009.9 0.0
04/11:30am NNE 12 17 - - - - - - - 17.6 1010.5 0.0
04/11:00am NE 10 16 - - - - - - - 17.2 1010.9 0.0
04/10:30am NNE 10 16 - - - - - - - 16.9 1011.0 0.0
04/10:00am NNE 12 16 - - - - - - - 15.9 1011.1 0.0
04/09:30am NNE 10 14 - - - - - - - 16.8 1011.4 0.0
04/09:00am NNE 9 16 - - - - - - - 17.3 1011.6 23.4
04/08:30am N 9 16 - - - - - - - 16.8 1011.6 23.4
04/08:00am N 9 15 - - - - - - - 15.9 1011.6 23.4
04/07:30am N 8 14 - - - - - - - 15.2 1011.2 23.4
04/07:00am N 9 14 - - - - - - - 14.7 1010.8 23.4
04/06:30am N 8 14 - - - - - - - 14.6 1010.8 23.4
04/06:00am NNW 12 19 - - - - - - - 15.0 1010.9 23.4
04/05:30am NNW 9 16 - - - - - - - 14.8 1010.9 23.4
04/05:00am NNW 9 19 - - - - - - - 14.8 1011.0 23.4
04/04:30am NNW 10 18 - - - - - - - 14.9 1011.0 23.4
04/04:00am NW 11 19 - - - - - - - 15.0 1011.0 23.4
04/03:30am NNW 14 25 - - - - - - - 15.0 1011.1 23.4
04/03:27am NNW 15 25 - - - - - - - 15.2 1011.1 23.4
04/03:26am NNW 15 25 - - - - - - - 15.2 - 23.4
04/03:00am NNW 10 19 - - - - - - - 15.1 1011.3 23.4
04/02:30am NNW 14 21 - - - - - - - 15.4 1011.5 23.4
04/02:00am NW 8 21 - - - - - - - 15.2 1011.4 23.4
04/01:30am NNE 6 13 - - - - - - - 15.4 1012.0 23.4
04/01:00am NNE 7 13 - - - - - - - 15.5 1011.9 23.4
04/12:30am N 7 15 - - - - - - - 15.6 1012.1 23.4
04/12:00am N 10 17 - - - - - - - 15.6 1012.0 23.4
 
Date/Time
EST
Wind Sea
Height
m
Swell Vis
km
Cloud Weather Temp
°C
Press
MSL
hPa
Rain since
9am
mm
Dir  Spd
kts
Gust
kts
Height
m
Period
s
Dir
03/11:30pm N 9 16 - - - - - - - 15.6 1011.9 23.4
03/11:00pm NNW 7 15 - - - - - - - 15.7 1011.1 23.4
03/10:30pm NNW 6 18 - - - - - - - 15.5 1012.2 23.4
03/10:00pm WNW 7 13 - - - - - - - 15.5 1011.9 23.4
03/09:30pm NNW 6 12 - - - - - - - 15.6 1012.1 23.4
03/09:00pm NNW 10 16 - - - - - - - 15.9 1012.1 23.4
03/08:30pm NW 11 15 - - - - - - - 15.7 1011.5 23.4
03/08:00pm WNW 14 17 - - - - - - - 15.8 1011.6 23.4

Other formats

Comma delimited format used in spreadsheet applications
http://www.bom.gov.au/fwo/IDT60701/IDT60701.94893.axf

JavaScript Object Notation format (JSON) in row-major order
http://www.bom.gov.au/fwo/IDT60701/IDT60701.94893.json

Data quality

Most of these data are generated automatically and are frequently updated. Quality checks on data are not normally performed. It is possible for incorrect values to appear. Refer to information at About Latest Weather Observations and please check the disclaimer before using these data.